createdAt,value
2024-04-06T00:00:24.620Z,79.00
2024-04-06T00:02:51.050Z,79.50
2024-04-06T00:05:19.563Z,79.40
2024-04-06T00:07:48.704Z,80.30
2024-04-06T00:10:17.331Z,81.20
2024-04-06T00:12:43.955Z,81.70
2024-04-06T00:15:10.629Z,81.90
2024-04-06T00:17:37.354Z,81.80
2024-04-06T00:20:04.822Z,82.00
2024-04-06T00:22:31.464Z,82.50
2024-04-06T00:24:58.062Z,82.70
2024-04-06T00:27:24.892Z,81.50
2024-04-06T00:29:51.635Z,80.90
2024-04-06T00:32:18.991Z,81.40
2024-04-06T00:34:45.637Z,80.90
2024-04-06T00:37:12.463Z,81.80
2024-04-06T00:39:38.860Z,81.70
2024-04-06T00:42:05.720Z,81.90
2024-04-06T00:44:32.477Z,82.40
2024-04-06T00:47:02.197Z,83.00
2024-04-06T00:49:29.586Z,84.00
2024-04-06T00:51:56.396Z,84.60
2024-04-06T00:54:22.971Z,85.90
2024-04-06T00:56:50.780Z,86.60
2024-04-06T00:59:18.328Z,88.70
2024-04-06T01:01:57.068Z,89.10
2024-04-06T01:04:31.390Z,90.20
2024-04-06T01:06:58.063Z,90.70
2024-04-06T01:09:24.502Z,91.40
2024-04-06T01:11:51.715Z,92.50
2024-04-06T01:14:18.240Z,93.10
2024-04-06T01:16:44.670Z,93.10
2024-04-06T01:19:11.285Z,93.80
2024-04-06T01:21:38.264Z,94.60
2024-04-06T01:24:46.993Z,94.80
2024-04-06T01:27:13.622Z,95.60
2024-04-06T01:29:40.350Z,95.80
2024-04-06T01:32:07.215Z,96.10
2024-04-06T01:37:00.316Z,96.80
2024-04-06T01:39:27.204Z,97.70
2024-04-06T01:41:54.065Z,97.80
2024-04-06T01:44:20.896Z,98.10
2024-04-06T01:46:47.528Z,99.10
2024-04-06T01:49:13.902Z,99.80
2024-04-06T01:51:41.392Z,99.90
2024-04-06T01:54:08.364Z,99.90
2024-04-06T01:56:34.946Z,99.90
2024-04-06T01:59:01.298Z,99.90
2024-04-06T02:01:27.752Z,99.90
2024-04-06T02:03:54.164Z,99.90
2024-04-06T02:06:20.619Z,99.90
2024-04-06T02:08:47.358Z,99.90
2024-04-06T02:11:14.108Z,99.90
2024-04-06T02:13:40.668Z,99.90
2024-04-06T02:16:07.534Z,99.90
2024-04-06T02:18:34.113Z,99.90
2024-04-06T02:21:00.591Z,99.90
2024-04-06T02:23:27.197Z,99.90
2024-04-06T02:25:54.033Z,99.90
2024-04-06T02:28:20.740Z,99.90
2024-04-06T02:30:47.449Z,99.90
2024-04-06T02:33:14.186Z,99.90
2024-04-06T02:35:40.877Z,99.90
2024-04-06T02:38:07.723Z,99.90
2024-04-06T02:40:34.569Z,99.90
2024-04-06T02:43:01.403Z,99.90
2024-04-06T02:45:28.809Z,99.90
2024-04-06T02:47:55.804Z,99.90
2024-04-06T02:50:22.292Z,99.90
2024-04-06T02:52:48.875Z,99.90
2024-04-06T02:55:15.556Z,99.90
2024-04-06T02:57:42.350Z,99.90
2024-04-06T03:00:11.700Z,99.90
2024-04-06T03:02:38.495Z,99.90
2024-04-06T03:05:05.628Z,99.90
2024-04-06T03:07:32.737Z,99.90
2024-04-06T03:09:59.338Z,99.90
2024-04-06T03:12:25.655Z,99.90
2024-04-06T03:14:53.223Z,99.90
2024-04-06T03:17:20.070Z,99.90
2024-04-06T03:19:46.906Z,99.90
2024-04-06T03:22:13.555Z,99.90
2024-04-06T03:24:40.591Z,99.90
2024-04-06T03:27:07.228Z,99.90
2024-04-06T03:29:33.572Z,99.90
2024-04-06T03:32:00.096Z,99.90
2024-04-06T03:34:26.815Z,99.90
2024-04-06T03:36:53.355Z,99.90
2024-04-06T03:39:20.206Z,99.90
2024-04-06T03:41:46.724Z,99.90
2024-04-06T03:44:13.474Z,99.90
2024-04-06T03:46:40.527Z,99.90
2024-04-06T03:49:07.343Z,99.90
2024-04-06T03:51:34.189Z,99.90
2024-04-06T03:54:00.559Z,99.90
2024-04-06T03:56:26.975Z,99.90
2024-04-06T03:58:53.816Z,99.90
2024-04-06T04:01:20.489Z,99.90
2024-04-06T04:03:47.374Z,99.90
2024-04-06T04:06:14.050Z,99.90
2024-04-06T04:08:41.172Z,99.90
2024-04-06T04:11:08.321Z,99.90
2024-04-06T04:13:35.070Z,99.90
2024-04-06T04:16:01.554Z,99.90
2024-04-06T04:18:28.442Z,99.90
2024-04-06T04:20:55.282Z,99.90
2024-04-06T04:23:22.024Z,99.90
2024-04-06T04:25:48.773Z,99.90
2024-04-06T04:28:15.196Z,99.90
2024-04-06T04:30:42.603Z,99.90
2024-04-06T04:33:09.017Z,99.90
2024-04-06T04:35:35.716Z,99.90
2024-04-06T04:38:02.504Z,99.90
2024-04-06T04:40:28.991Z,99.90
2024-04-06T04:42:55.638Z,99.90
2024-04-06T04:45:22.062Z,99.90
2024-04-06T04:47:48.492Z,99.90
2024-04-06T04:50:14.943Z,99.90
2024-04-06T04:52:41.285Z,99.90
2024-04-06T04:55:07.650Z,99.90
2024-04-06T04:57:34.527Z,99.90
2024-04-06T05:00:01.015Z,99.90
2024-04-06T05:02:27.493Z,99.90
2024-04-06T05:04:53.875Z,99.90
2024-04-06T05:07:22.252Z,99.90
2024-04-06T05:09:49.062Z,99.90
2024-04-06T05:12:15.793Z,99.90
2024-04-06T05:14:44.180Z,99.90
2024-04-06T05:17:10.544Z,99.90
2024-04-06T05:19:37.037Z,99.90
2024-04-06T05:22:04.237Z,99.90
2024-04-06T05:24:30.822Z,99.90
2024-04-06T05:26:59.307Z,99.90
2024-04-06T05:29:26.553Z,99.90
2024-04-06T05:31:57.570Z,99.90
2024-04-06T05:34:24.432Z,99.90
2024-04-06T05:36:53.195Z,99.90
2024-04-06T05:39:19.753Z,99.90
2024-04-06T05:41:46.574Z,99.90
2024-04-06T05:44:13.330Z,99.90
2024-04-06T05:46:40.285Z,99.90
2024-04-06T05:49:06.658Z,99.90
2024-04-06T05:51:33.760Z,99.90
2024-04-06T05:54:01.623Z,98.30
2024-04-06T05:56:28.213Z,97.90
2024-04-06T05:58:54.801Z,97.10
2024-04-06T06:01:23.281Z,92.60
2024-04-06T06:03:49.802Z,94.30
2024-04-06T06:06:16.470Z,93.30
2024-04-06T06:08:43.084Z,93.80
2024-04-06T06:11:09.826Z,93.20
2024-04-06T06:13:36.306Z,93.80
2024-04-06T06:16:03.107Z,93.70
2024-04-06T06:18:30.340Z,94.00
2024-04-06T06:20:57.033Z,94.80
2024-04-06T06:23:23.828Z,92.20
2024-04-06T06:25:50.574Z,89.70
2024-04-06T06:28:17.021Z,86.60
2024-04-06T06:30:43.627Z,87.80
2024-04-06T06:33:10.471Z,88.50
2024-04-06T06:37:52.790Z,87.60
2024-04-06T06:42:49.655Z,81.10
2024-04-06T06:45:16.018Z,78.70
2024-04-06T06:47:44.996Z,78.40
2024-04-06T06:50:11.621Z,77.90
2024-04-06T06:52:38.027Z,77.30
2024-04-06T06:55:05.074Z,74.60
2024-04-06T06:57:31.566Z,69.20
2024-04-06T07:02:27.962Z,62.70
2024-04-06T07:04:55.151Z,59.30
2024-04-06T07:07:21.762Z,58.20
2024-04-06T07:09:48.542Z,57.20
2024-04-06T07:12:15.329Z,52.50
2024-04-06T07:14:41.824Z,51.70
2024-04-06T07:17:08.453Z,51.40
2024-04-06T07:19:34.907Z,48.60
2024-04-06T07:22:01.344Z,51.70
2024-04-06T07:24:28.106Z,52.20
2024-04-06T07:26:55.461Z,50.70
2024-04-06T07:29:21.913Z,53.30
2024-04-06T07:31:49.170Z,53.40
2024-04-06T07:34:15.971Z,55.60
2024-04-06T07:36:42.416Z,56.30
2024-04-06T07:41:38.507Z,57.20
2024-04-06T07:44:05.446Z,56.40
2024-04-06T07:46:32.255Z,56.60
2024-04-06T07:48:59.648Z,58.90
2024-04-06T07:51:26.447Z,57.90
2024-04-06T07:53:52.990Z,57.50
2024-04-06T07:56:19.392Z,56.70
2024-04-06T07:58:46.055Z,56.30
2024-04-06T08:01:12.898Z,55.60
2024-04-06T08:03:39.524Z,58.80
2024-04-06T08:06:07.414Z,60.30
2024-04-06T08:08:37.519Z,57.50
2024-04-06T08:11:04.502Z,57.00
2024-04-06T08:13:32.313Z,58.40
2024-04-06T08:15:59.168Z,60.70
2024-04-06T08:18:26.023Z,61.00
2024-04-06T08:20:53.504Z,60.90
2024-04-06T08:23:20.300Z,61.70
2024-04-06T08:25:48.914Z,59.90
2024-04-06T08:28:15.634Z,56.20
2024-04-06T08:30:42.460Z,56.10
2024-04-06T08:33:09.258Z,54.20
2024-04-06T08:35:38.447Z,55.70
2024-04-06T08:38:06.147Z,55.30
2024-04-06T08:40:33.085Z,51.50
2024-04-06T08:43:03.120Z,49.30
2024-04-06T08:45:29.714Z,46.90
2024-04-06T08:47:57.198Z,47.20
2024-04-06T08:50:25.789Z,46.80
2024-04-06T08:52:52.842Z,47.30
2024-04-06T08:55:20.213Z,47.80
2024-04-06T08:57:47.666Z,49.30
2024-04-06T09:00:16.415Z,50.70
2024-04-06T09:02:43.181Z,48.60
2024-04-06T09:05:11.894Z,48.70
2024-04-06T09:07:38.451Z,46.40
2024-04-06T09:10:06.089Z,48.80
2024-04-06T09:12:32.799Z,47.90
2024-04-06T09:15:00.850Z,51.20
2024-04-06T09:17:29.709Z,49.70
2024-04-06T09:19:56.160Z,49.40
2024-04-06T09:22:22.664Z,50.80
2024-04-06T09:24:49.366Z,50.50
2024-04-06T09:27:19.231Z,49.80
2024-04-06T09:29:49.094Z,50.00
2024-04-06T09:32:20.608Z,49.60
2024-04-06T09:34:52.009Z,48.80
2024-04-06T09:37:30.755Z,49.40
2024-04-06T09:39:57.136Z,51.00
2024-04-06T09:42:23.451Z,50.50
2024-04-06T09:44:50.159Z,51.60
2024-04-06T09:47:16.626Z,51.10
2024-04-06T09:49:43.023Z,55.70
2024-04-06T09:52:09.621Z,56.00
2024-04-06T09:54:36.027Z,56.50
2024-04-06T09:57:02.886Z,54.90
2024-04-06T09:59:29.572Z,55.60
2024-04-06T10:01:57.096Z,55.30
2024-04-06T10:04:35.701Z,51.80
2024-04-06T10:07:06.137Z,52.10
2024-04-06T10:09:38.068Z,54.10
2024-04-06T10:12:07.848Z,53.40
2024-04-06T10:14:45.095Z,55.00
2024-04-06T10:17:16.334Z,52.90
2024-04-06T10:19:44.861Z,49.10
2024-04-06T10:22:12.312Z,47.90
2024-04-06T10:24:38.800Z,50.50
2024-04-06T10:27:15.674Z,48.70
2024-04-06T10:29:42.109Z,46.20
2024-04-06T10:32:08.725Z,49.60
2024-04-06T10:34:42.990Z,49.80
2024-04-06T10:37:13.302Z,49.30
2024-04-06T10:39:39.908Z,48.70
2024-04-06T10:42:06.661Z,49.30
2024-04-06T10:44:33.085Z,50.10
2024-04-06T10:46:59.589Z,49.30
2024-04-06T10:49:26.181Z,50.50
2024-04-06T10:51:52.495Z,50.70
2024-04-06T10:54:18.942Z,51.10
2024-04-06T10:56:45.352Z,51.80
2024-04-06T10:59:12.091Z,51.20
2024-04-06T11:01:40.618Z,53.90
2024-04-06T11:04:07.415Z,51.80
2024-04-06T11:06:36.382Z,52.80
2024-04-06T11:09:07.651Z,51.20
2024-04-06T11:11:33.972Z,52.70
2024-04-06T11:14:00.408Z,51.00
2024-04-06T11:16:27.266Z,49.60
2024-04-06T11:18:54.904Z,52.80
2024-04-06T11:21:21.759Z,52.10
2024-04-06T11:23:48.398Z,52.70
2024-04-06T11:26:21.483Z,52.10
2024-04-06T11:28:47.971Z,54.00
2024-04-06T11:31:17.372Z,54.60
2024-04-06T11:33:43.903Z,51.80
2024-04-06T11:36:10.499Z,55.00
2024-04-06T11:38:36.970Z,54.80
2024-04-06T11:41:03.648Z,53.40
2024-04-06T11:43:30.041Z,54.30
2024-04-06T11:45:56.833Z,54.00
2024-04-06T11:48:23.699Z,53.70
2024-04-06T11:50:50.427Z,53.90
2024-04-06T11:53:17.050Z,54.00
2024-04-06T11:55:43.788Z,53.10
2024-04-06T11:58:10.281Z,54.80
2024-04-06T12:00:36.764Z,53.20
2024-04-06T12:03:03.717Z,53.50
2024-04-06T12:05:30.222Z,52.40
2024-04-06T12:07:56.578Z,50.40
2024-04-06T12:10:23.325Z,52.20
2024-04-06T12:12:51.169Z,51.50
2024-04-06T12:15:19.599Z,53.50
2024-04-06T12:17:46.710Z,55.10
2024-04-06T12:20:13.555Z,54.20
2024-04-06T12:22:39.920Z,55.00
2024-04-06T12:25:07.482Z,56.00
2024-04-06T12:27:34.630Z,52.80
2024-04-06T12:30:01.626Z,53.00
2024-04-06T12:32:28.384Z,53.40
2024-04-06T12:34:55.439Z,50.40
2024-04-06T12:37:22.132Z,48.90
2024-04-06T12:39:48.788Z,49.50
2024-04-06T12:42:15.510Z,49.50
2024-04-06T12:44:41.873Z,48.50
2024-04-06T12:47:08.342Z,48.00
2024-04-06T12:49:34.826Z,49.20
2024-04-06T12:52:01.463Z,49.20
2024-04-06T12:54:28.520Z,48.80
2024-04-06T12:57:13.845Z,49.60
2024-04-06T12:59:40.427Z,47.90
2024-04-06T13:02:07.102Z,49.00
2024-04-06T13:04:33.895Z,47.70
2024-04-06T13:07:00.358Z,49.80
2024-04-06T13:09:26.765Z,50.50
2024-04-06T13:11:53.188Z,51.80
2024-04-06T13:14:19.633Z,50.20
2024-04-06T13:16:46.276Z,52.20
2024-04-06T13:19:12.773Z,51.60
2024-04-06T13:21:42.301Z,52.30
2024-04-06T13:24:11.926Z,52.80
2024-04-06T13:26:38.542Z,52.70
2024-04-06T13:29:05.185Z,49.30
2024-04-06T13:31:32.275Z,50.30
2024-04-06T13:33:58.975Z,51.20
2024-04-06T13:36:26.830Z,51.60
2024-04-06T13:38:53.572Z,52.50
2024-04-06T13:41:20.305Z,52.90
2024-04-06T13:43:48.346Z,52.70
2024-04-06T13:46:15.424Z,54.00
2024-04-06T13:48:42.784Z,53.30
2024-04-06T13:51:09.211Z,53.90
2024-04-06T13:53:35.738Z,54.60
2024-04-06T13:56:02.278Z,52.30
2024-04-06T13:58:28.710Z,51.90
2024-04-06T14:00:59.102Z,51.90
2024-04-06T14:03:25.884Z,50.60
2024-04-06T14:05:52.309Z,48.00
2024-04-06T14:08:19.019Z,50.20
2024-04-06T14:10:45.515Z,49.40
2024-04-06T14:13:12.049Z,48.40
2024-04-06T14:15:38.591Z,50.20
2024-04-06T14:18:05.072Z,49.80
2024-04-06T14:20:31.839Z,49.40
2024-04-06T14:23:00.291Z,49.30
2024-04-06T14:25:26.714Z,49.40
2024-04-06T14:27:53.142Z,49.20
2024-04-06T14:30:33.281Z,49.40
2024-04-06T14:32:59.728Z,48.30
2024-04-06T14:35:26.409Z,49.00
2024-04-06T14:37:52.932Z,50.40
2024-04-06T14:40:19.283Z,50.40
2024-04-06T14:42:45.672Z,50.40
2024-04-06T14:45:12.017Z,50.60
2024-04-06T14:47:38.336Z,48.90
2024-04-06T14:50:05.499Z,49.60
2024-04-06T14:52:32.032Z,49.60
2024-04-06T14:54:59.402Z,51.00
2024-04-06T14:57:26.451Z,49.90
2024-04-06T14:59:52.882Z,51.00
2024-04-06T15:02:19.925Z,50.00
2024-04-06T15:04:46.359Z,50.40
2024-04-06T15:07:12.832Z,51.30
2024-04-06T15:09:40.234Z,50.20
2024-04-06T15:12:07.724Z,51.20
2024-04-06T15:14:34.336Z,52.10
2024-04-06T15:17:00.839Z,51.80
2024-04-06T15:19:27.560Z,52.40
2024-04-06T15:21:54.253Z,52.10
2024-04-06T15:24:20.875Z,52.30
2024-04-06T15:26:47.408Z,52.10
2024-04-06T15:29:13.960Z,52.50
2024-04-06T15:31:40.381Z,52.90
2024-04-06T15:34:08.493Z,53.50
2024-04-06T15:36:35.670Z,54.50
2024-04-06T15:39:17.182Z,55.00
2024-04-06T15:41:43.562Z,54.30
2024-04-06T15:44:10.056Z,55.10
2024-04-06T15:46:36.430Z,55.10
2024-04-06T15:49:02.932Z,54.70
2024-04-06T15:51:29.325Z,55.30
2024-04-06T15:53:55.676Z,55.60
2024-04-06T15:56:22.099Z,55.10
2024-04-06T15:58:48.559Z,55.70
2024-04-06T16:01:18.004Z,55.90
2024-04-06T16:03:45.719Z,55.90
2024-04-06T16:06:12.235Z,57.50
2024-04-06T16:08:38.615Z,57.10
2024-04-06T16:11:05.111Z,56.20
2024-04-06T16:13:31.688Z,57.00
2024-04-06T16:15:58.693Z,56.10
2024-04-06T16:18:25.116Z,56.60
2024-04-06T16:20:51.641Z,55.90
2024-04-06T16:23:18.063Z,57.40
2024-04-06T16:25:44.875Z,57.50
2024-04-06T16:28:11.366Z,58.10
2024-04-06T16:30:37.789Z,58.80
2024-04-06T16:33:04.981Z,59.00
2024-04-06T16:35:31.369Z,60.40
2024-04-06T16:37:57.809Z,62.20
2024-04-06T16:40:26.620Z,62.50
2024-04-06T16:42:53.129Z,62.50
2024-04-06T16:45:19.671Z,62.80
2024-04-06T16:47:46.238Z,63.00
2024-04-06T16:50:13.287Z,63.80
2024-04-06T16:52:40.080Z,63.70
2024-04-06T16:55:07.080Z,63.80
2024-04-06T16:57:33.457Z,64.70
2024-04-06T16:59:59.893Z,65.90
2024-04-06T17:02:26.428Z,67.10
2024-04-06T17:04:52.747Z,69.00
2024-04-06T17:07:19.300Z,70.60
2024-04-06T17:09:45.741Z,71.00
2024-04-06T17:12:12.152Z,71.70
2024-04-06T17:14:38.583Z,74.20
2024-04-06T17:17:05.340Z,74.80
2024-04-06T17:19:31.788Z,75.40
2024-04-06T17:21:58.394Z,77.50
2024-04-06T17:24:24.832Z,79.20
2024-04-06T17:26:51.373Z,83.10
2024-04-06T17:29:17.812Z,82.10
2024-04-06T17:31:44.345Z,83.40
2024-04-06T17:34:11.897Z,84.80
2024-04-06T17:36:38.420Z,86.00
2024-04-06T17:39:07.645Z,86.90
2024-04-06T17:41:36.106Z,89.10
2024-04-06T17:44:02.536Z,89.40
2024-04-06T17:46:32.523Z,89.60
2024-04-06T17:48:59.496Z,92.60
2024-04-06T17:51:26.036Z,95.10
2024-04-06T17:53:52.581Z,97.00
2024-04-06T17:56:19.078Z,96.90
2024-04-06T17:58:45.475Z,95.70
2024-04-06T18:01:11.854Z,97.30
2024-04-06T18:03:38.305Z,98.10
2024-04-06T18:06:05.538Z,99.70
2024-04-06T18:08:32.073Z,99.90
2024-04-06T18:10:58.727Z,99.90
2024-04-06T18:13:26.510Z,99.90
2024-04-06T18:15:53.010Z,99.90
2024-04-06T18:18:19.392Z,99.90
2024-04-06T18:20:46.231Z,99.90
2024-04-06T18:23:13.682Z,99.90
2024-04-06T18:25:40.171Z,99.90
2024-04-06T18:28:06.551Z,99.90
2024-04-06T18:30:32.937Z,99.90
2024-04-06T18:32:59.370Z,99.90
2024-04-06T18:35:26.029Z,99.90
2024-04-06T18:37:53.152Z,99.90
2024-04-06T18:40:20.312Z,99.60
2024-04-06T18:42:46.956Z,99.90
2024-04-06T18:45:13.477Z,99.90
2024-04-06T18:47:41.658Z,99.90
2024-04-06T18:50:08.292Z,99.90
2024-04-06T18:52:35.135Z,99.90
2024-04-06T18:55:01.617Z,99.90
2024-04-06T18:57:28.102Z,99.90
2024-04-06T18:59:54.653Z,99.90
2024-04-06T19:02:26.075Z,99.90
2024-04-06T19:04:58.962Z,99.90
2024-04-06T19:07:25.459Z,99.90
2024-04-06T19:09:51.927Z,99.90
2024-04-06T19:12:18.954Z,99.90
2024-04-06T19:14:45.386Z,99.90
2024-04-06T19:17:11.971Z,99.90
2024-04-06T19:19:40.015Z,99.90
2024-04-06T19:22:06.389Z,99.90
2024-04-06T19:24:32.884Z,99.90
2024-04-06T19:26:59.512Z,99.90
2024-04-06T19:29:25.960Z,99.90
2024-04-06T19:31:52.413Z,99.90
2024-04-06T19:34:19.932Z,99.90
2024-04-06T19:36:46.582Z,99.90
2024-04-06T19:39:13.326Z,99.90
2024-04-06T19:41:39.844Z,99.90
2024-04-06T19:44:08.721Z,99.90
2024-04-06T19:46:36.339Z,99.90
2024-04-06T19:49:02.943Z,99.90
2024-04-06T19:51:29.370Z,99.90
2024-04-06T19:53:57.081Z,99.90
2024-04-06T19:56:26.789Z,99.90
2024-04-06T19:58:53.585Z,99.90
2024-04-06T20:01:20.234Z,99.90
2024-04-06T20:03:46.642Z,99.90
2024-04-06T20:06:13.075Z,99.90
2024-04-06T20:08:39.622Z,99.90
2024-04-06T20:11:06.170Z,99.90
2024-04-06T20:13:32.618Z,99.90
2024-04-06T20:15:59.112Z,99.90
2024-04-06T20:18:25.468Z,99.90
2024-04-06T20:20:51.875Z,99.90
2024-04-06T20:23:37.056Z,99.90
2024-04-06T20:26:05.643Z,99.90
2024-04-06T20:28:32.954Z,99.90
2024-04-06T20:30:59.516Z,99.90
2024-04-06T20:33:26.389Z,99.90
2024-04-06T20:35:52.792Z,99.90
2024-04-06T20:38:19.278Z,99.90
2024-04-06T20:40:45.766Z,99.90
2024-04-06T20:43:12.188Z,99.90
2024-04-06T20:45:38.822Z,99.90
2024-04-06T20:48:08.870Z,99.90
2024-04-06T20:50:35.350Z,99.90
2024-04-06T20:53:05.288Z,99.90
2024-04-06T20:55:34.558Z,99.90
2024-04-06T20:58:01.635Z,99.90
2024-04-06T21:00:28.077Z,99.90
2024-04-06T21:02:54.500Z,99.90
2024-04-06T21:05:21.148Z,99.90
2024-04-06T21:07:47.687Z,99.90
2024-04-06T21:10:15.534Z,99.90
2024-04-06T21:12:42.429Z,99.90
2024-04-06T21:15:21.849Z,99.90
2024-04-06T21:17:51.540Z,99.90
2024-04-06T21:20:19.388Z,99.90
2024-04-06T21:22:45.970Z,99.90
2024-04-06T21:25:12.665Z,99.90
2024-04-06T21:27:43.718Z,99.90
2024-04-06T21:30:14.391Z,99.90
2024-04-06T21:32:40.874Z,99.90
2024-04-06T21:35:07.619Z,99.90
2024-04-06T21:37:34.268Z,99.90
2024-04-06T21:40:01.164Z,99.90
2024-04-06T21:42:27.630Z,99.90
2024-04-06T21:44:54.572Z,99.90
2024-04-06T21:47:21.113Z,99.90
2024-04-06T21:49:48.366Z,99.90
2024-04-06T21:52:14.792Z,99.90
2024-04-06T21:54:41.721Z,99.90
2024-04-06T21:57:08.291Z,99.90
2024-04-06T21:59:34.755Z,99.90
2024-04-06T22:02:01.362Z,99.90
2024-04-06T22:04:28.399Z,99.90
2024-04-06T22:06:55.024Z,99.90
2024-04-06T22:09:21.450Z,99.90
2024-04-06T22:11:49.327Z,99.90
2024-04-06T22:14:16.165Z,99.90
2024-04-06T22:16:45.467Z,99.90
2024-04-06T22:19:11.891Z,99.90
2024-04-06T22:21:38.347Z,99.90
2024-04-06T22:24:06.310Z,99.90
2024-04-06T22:26:32.637Z,99.90
2024-04-06T22:28:59.154Z,99.90
2024-04-06T22:31:26.414Z,99.90
2024-04-06T22:33:52.950Z,99.90
2024-04-06T22:36:19.373Z,99.90
2024-04-06T22:38:45.905Z,99.90
2024-04-06T22:41:12.655Z,99.90
2024-04-06T22:43:39.109Z,99.90
2024-04-06T22:46:05.715Z,99.90
2024-04-06T22:48:32.145Z,99.90
2024-04-06T22:50:58.787Z,99.90
2024-04-06T22:53:25.299Z,99.90
2024-04-06T22:55:51.862Z,99.90
2024-04-06T22:58:18.286Z,99.90
2024-04-06T23:00:44.715Z,99.90
2024-04-06T23:03:11.163Z,99.90
2024-04-06T23:05:37.640Z,99.90
2024-04-06T23:08:04.870Z,99.90
2024-04-06T23:10:32.402Z,99.90
2024-04-06T23:12:58.950Z,99.90
2024-04-06T23:15:25.364Z,99.90
2024-04-06T23:17:51.903Z,99.90
2024-04-06T23:20:18.639Z,99.90
2024-04-06T23:22:45.306Z,99.90
2024-04-06T23:25:11.758Z,99.90
2024-04-06T23:27:38.234Z,99.90
2024-04-06T23:30:07.106Z,99.90
2024-04-06T23:32:33.569Z,99.90
2024-04-06T23:35:00.181Z,99.90
2024-04-06T23:37:26.742Z,99.90
2024-04-06T23:39:53.261Z,99.90
2024-04-06T23:42:19.641Z,99.90
2024-04-06T23:44:46.139Z,99.90
2024-04-06T23:47:12.507Z,99.90
2024-04-06T23:49:40.551Z,99.90
2024-04-06T23:52:07.008Z,99.90
2024-04-06T23:54:34.007Z,99.90
2024-04-06T23:57:00.941Z,99.90
2024-04-06T23:59:28.545Z,99.90
